sensor_id;sensor_type;location;lat;lon;timestamp;P1;durP1;ratioP1;P2;durP2;ratioP2
28629;SDS011;15817;42.130;24.762;2023-04-15T00:01:41;4.95;;;3.08;;
28629;SDS011;15817;42.130;24.762;2023-04-15T00:04:07;4.47;;;2.60;;
28629;SDS011;15817;42.130;24.762;2023-04-15T00:06:33;7.55;;;3.65;;
28629;SDS011;15817;42.130;24.762;2023-04-15T00:08:59;3.45;;;2.85;;
28629;SDS011;15817;42.130;24.762;2023-04-15T00:11:25;5.68;;;2.97;;
28629;SDS011;15817;42.130;24.762;2023-04-15T00:13:50;4.55;;;3.03;;
28629;SDS011;15817;42.130;24.762;2023-04-15T00:16:16;4.43;;;3.15;;
28629;SDS011;15817;42.130;24.762;2023-04-15T00:18:42;6.97;;;3.60;;
28629;SDS011;15817;42.130;24.762;2023-04-15T00:21:08;5.97;;;3.28;;
28629;SDS011;15817;42.130;24.762;2023-04-15T00:23:34;5.03;;;3.60;;
28629;SDS011;15817;42.130;24.762;2023-04-15T00:26:01;4.80;;;3.22;;
28629;SDS011;15817;42.130;24.762;2023-04-15T00:28:27;5.85;;;3.00;;
28629;SDS011;15817;42.130;24.762;2023-04-15T00:30:55;6.18;;;3.38;;
28629;SDS011;15817;42.130;24.762;2023-04-15T00:33:21;8.95;;;3.58;;
28629;SDS011;15817;42.130;24.762;2023-04-15T00:35:46;6.97;;;3.63;;
28629;SDS011;15817;42.130;24.762;2023-04-15T00:38:12;6.35;;;4.25;;
28629;SDS011;15817;42.130;24.762;2023-04-15T00:40:39;9.82;;;4.28;;
28629;SDS011;15817;42.130;24.762;2023-04-15T00:43:06;7.57;;;3.40;;
28629;SDS011;15817;42.130;24.762;2023-04-15T00:45:31;5.43;;;3.65;;
28629;SDS011;15817;42.130;24.762;2023-04-15T00:47:57;6.25;;;3.83;;
28629;SDS011;15817;42.130;24.762;2023-04-15T00:50:24;5.85;;;3.75;;
28629;SDS011;15817;42.130;24.762;2023-04-15T00:52:49;5.68;;;3.50;;
28629;SDS011;15817;42.130;24.762;2023-04-15T00:55:15;4.80;;;3.63;;
28629;SDS011;15817;42.130;24.762;2023-04-15T00:57:41;4.93;;;3.58;;
28629;SDS011;15817;42.130;24.762;2023-04-15T01:00:07;4.85;;;3.33;;
28629;SDS011;15817;42.130;24.762;2023-04-15T01:02:34;5.90;;;3.78;;
28629;SDS011;15817;42.130;24.762;2023-04-15T01:05:00;7.13;;;3.90;;
28629;SDS011;15817;42.130;24.762;2023-04-15T01:07:26;5.47;;;3.60;;
28629;SDS011;15817;42.130;24.762;2023-04-15T01:09:52;9.30;;;3.67;;
28629;SDS011;15817;42.130;24.762;2023-04-15T01:12:18;4.53;;;3.40;;
28629;SDS011;15817;42.130;24.762;2023-04-15T01:14:44;10.68;;;3.42;;
28629;SDS011;15817;42.130;24.762;2023-04-15T01:17:10;7.15;;;3.42;;
28629;SDS011;15817;42.130;24.762;2023-04-15T01:19:38;4.28;;;3.30;;
28629;SDS011;15817;42.130;24.762;2023-04-15T01:22:05;4.50;;;3.10;;
28629;SDS011;15817;42.130;24.762;2023-04-15T01:24:31;6.30;;;3.58;;
28629;SDS011;15817;42.130;24.762;2023-04-15T01:26:58;7.50;;;3.47;;
28629;SDS011;15817;42.130;24.762;2023-04-15T01:29:24;6.13;;;3.03;;
28629;SDS011;15817;42.130;24.762;2023-04-15T01:31:50;5.18;;;2.70;;
28629;SDS011;15817;42.130;24.762;2023-04-15T01:34:17;5.20;;;2.85;;
28629;SDS011;15817;42.130;24.762;2023-04-15T01:36:43;3.92;;;2.83;;
28629;SDS011;15817;42.130;24.762;2023-04-15T01:39:09;3.72;;;2.40;;
28629;SDS011;15817;42.130;24.762;2023-04-15T01:41:35;5.07;;;2.50;;
28629;SDS011;15817;42.130;24.762;2023-04-15T01:44:00;3.05;;;2.40;;
28629;SDS011;15817;42.130;24.762;2023-04-15T01:46:26;4.30;;;2.20;;
28629;SDS011;15817;42.130;24.762;2023-04-15T01:48:52;2.85;;;2.13;;
28629;SDS011;15817;42.130;24.762;2023-04-15T01:51:18;4.88;;;2.55;;
28629;SDS011;15817;42.130;24.762;2023-04-15T01:53:44;4.10;;;2.40;;
28629;SDS011;15817;42.130;24.762;2023-04-15T01:56:10;5.88;;;2.67;;
28629;SDS011;15817;42.130;24.762;2023-04-15T01:58:36;4.32;;;2.30;;
28629;SDS011;15817;42.130;24.762;2023-04-15T02:01:02;3.78;;;2.25;;
28629;SDS011;15817;42.130;24.762;2023-04-15T02:03:30;5.90;;;2.47;;
28629;SDS011;15817;42.130;24.762;2023-04-15T02:05:56;3.13;;;2.13;;
28629;SDS011;15817;42.130;24.762;2023-04-15T02:08:22;3.53;;;2.30;;
28629;SDS011;15817;42.130;24.762;2023-04-15T02:10:47;3.03;;;2.20;;
28629;SDS011;15817;42.130;24.762;2023-04-15T02:13:13;5.28;;;2.55;;
28629;SDS011;15817;42.130;24.762;2023-04-15T02:15:39;2.90;;;2.13;;
28629;SDS011;15817;42.130;24.762;2023-04-15T02:18:05;3.22;;;2.20;;
28629;SDS011;15817;42.130;24.762;2023-04-15T02:20:31;4.72;;;2.10;;
28629;SDS011;15817;42.130;24.762;2023-04-15T02:22:57;7.10;;;2.10;;
28629;SDS011;15817;42.130;24.762;2023-04-15T02:25:23;2.30;;;1.75;;
28629;SDS011;15817;42.130;24.762;2023-04-15T02:27:49;4.38;;;1.90;;
28629;SDS011;15817;42.130;24.762;2023-04-15T02:30:15;3.95;;;2.00;;
28629;SDS011;15817;42.130;24.762;2023-04-15T02:32:41;6.85;;;1.90;;
28629;SDS011;15817;42.130;24.762;2023-04-15T02:35:09;3.30;;;2.22;;
28629;SDS011;15817;42.130;24.762;2023-04-15T02:37:35;5.05;;;2.72;;
28629;SDS011;15817;42.130;24.762;2023-04-15T02:40:09;6.47;;;2.50;;
28629;SDS011;15817;42.130;24.762;2023-04-15T02:42:38;3.55;;;2.20;;
28629;SDS011;15817;42.130;24.762;2023-04-15T02:45:07;4.13;;;2.17;;
28629;SDS011;15817;42.130;24.762;2023-04-15T02:47:34;4.13;;;2.13;;
28629;SDS011;15817;42.130;24.762;2023-04-15T02:50:03;5.60;;;2.55;;
28629;SDS011;15817;42.130;24.762;2023-04-15T02:52:30;5.35;;;2.17;;
28629;SDS011;15817;42.130;24.762;2023-04-15T02:54:56;6.63;;;2.20;;
28629;SDS011;15817;42.130;24.762;2023-04-15T02:57:25;6.00;;;2.03;;
28629;SDS011;15817;42.130;24.762;2023-04-15T02:59:54;3.20;;;1.92;;
28629;SDS011;15817;42.130;24.762;2023-04-15T03:02:20;5.68;;;1.95;;
28629;SDS011;15817;42.130;24.762;2023-04-15T03:04:45;5.10;;;2.15;;
28629;SDS011;15817;42.130;24.762;2023-04-15T03:07:11;3.65;;;2.53;;
28629;SDS011;15817;42.130;24.762;2023-04-15T03:09:37;3.85;;;2.30;;
28629;SDS011;15817;42.130;24.762;2023-04-15T03:12:05;3.55;;;2.10;;
28629;SDS011;15817;42.130;24.762;2023-04-15T03:14:31;6.30;;;2.35;;
28629;SDS011;15817;42.130;24.762;2023-04-15T03:17:00;3.53;;;2.00;;
28629;SDS011;15817;42.130;24.762;2023-04-15T03:19:28;4.22;;;1.92;;
28629;SDS011;15817;42.130;24.762;2023-04-15T03:21:56;3.28;;;1.88;;
28629;SDS011;15817;42.130;24.762;2023-04-15T03:24:22;3.85;;;1.90;;
28629;SDS011;15817;42.130;24.762;2023-04-15T03:26:51;3.70;;;2.20;;
28629;SDS011;15817;42.130;24.762;2023-04-15T03:29:22;3.83;;;2.17;;
28629;SDS011;15817;42.130;24.762;2023-04-15T03:31:48;7.57;;;2.20;;
28629;SDS011;15817;42.130;24.762;2023-04-15T03:34:15;3.08;;;2.03;;
28629;SDS011;15817;42.130;24.762;2023-04-15T03:36:40;3.55;;;1.70;;
28629;SDS011;15817;42.130;24.762;2023-04-15T03:39:06;2.25;;;2.05;;
28629;SDS011;15817;42.130;24.762;2023-04-15T03:41:32;3.88;;;2.00;;
28629;SDS011;15817;42.130;24.762;2023-04-15T03:43:57;4.40;;;2.35;;
28629;SDS011;15817;42.130;24.762;2023-04-15T03:46:23;3.45;;;2.03;;
28629;SDS011;15817;42.130;24.762;2023-04-15T03:48:49;3.60;;;2.08;;
28629;SDS011;15817;42.130;24.762;2023-04-15T03:51:15;4.35;;;1.70;;
28629;SDS011;15817;42.130;24.762;2023-04-15T03:53:41;2.78;;;1.70;;
28629;SDS011;15817;42.130;24.762;2023-04-15T03:56:07;3.65;;;2.22;;
28629;SDS011;15817;42.130;24.762;2023-04-15T03:58:32;3.95;;;2.00;;
28629;SDS011;15817;42.130;24.762;2023-04-15T04:00:58;3.00;;;2.15;;
28629;SDS011;15817;42.130;24.762;2023-04-15T04:03:24;7.30;;;2.00;;
28629;SDS011;15817;42.130;24.762;2023-04-15T04:05:50;3.80;;;1.92;;
28629;SDS011;15817;42.130;24.762;2023-04-15T04:08:16;3.38;;;2.00;;
28629;SDS011;15817;42.130;24.762;2023-04-15T04:10:43;4.03;;;1.83;;
28629;SDS011;15817;42.130;24.762;2023-04-15T04:13:09;4.80;;;2.08;;
28629;SDS011;15817;42.130;24.762;2023-04-15T04:15:35;4.22;;;1.90;;
28629;SDS011;15817;42.130;24.762;2023-04-15T04:18:01;2.45;;;1.92;;
28629;SDS011;15817;42.130;24.762;2023-04-15T04:20:26;6.03;;;2.00;;
28629;SDS011;15817;42.130;24.762;2023-04-15T04:22:52;3.80;;;1.80;;
28629;SDS011;15817;42.130;24.762;2023-04-15T04:25:18;2.55;;;2.08;;
28629;SDS011;15817;42.130;24.762;2023-04-15T04:27:43;7.57;;;2.53;;
28629;SDS011;15817;42.130;24.762;2023-04-15T04:30:09;5.03;;;2.10;;
28629;SDS011;15817;42.130;24.762;2023-04-15T04:32:36;2.78;;;1.77;;
28629;SDS011;15817;42.130;24.762;2023-04-15T04:35:02;4.43;;;2.15;;
28629;SDS011;15817;42.130;24.762;2023-04-15T04:37:29;4.35;;;2.03;;
28629;SDS011;15817;42.130;24.762;2023-04-15T04:39:55;4.47;;;2.03;;
28629;SDS011;15817;42.130;24.762;2023-04-15T04:42:21;4.10;;;1.98;;
28629;SDS011;15817;42.130;24.762;2023-04-15T04:44:47;4.30;;;2.10;;
28629;SDS011;15817;42.130;24.762;2023-04-15T04:47:13;6.88;;;1.73;;
28629;SDS011;15817;42.130;24.762;2023-04-15T04:49:38;4.60;;;2.10;;
28629;SDS011;15817;42.130;24.762;2023-04-15T04:52:05;11.82;;;1.90;;
28629;SDS011;15817;42.130;24.762;2023-04-15T04:54:31;4.00;;;1.73;;
28629;SDS011;15817;42.130;24.762;2023-04-15T04:56:57;5.88;;;2.10;;
28629;SDS011;15817;42.130;24.762;2023-04-15T04:59:23;5.07;;;2.17;;
28629;SDS011;15817;42.130;24.762;2023-04-15T05:01:58;5.20;;;2.08;;
28629;SDS011;15817;42.130;24.762;2023-04-15T05:04:23;4.65;;;2.15;;
28629;SDS011;15817;42.130;24.762;2023-04-15T05:06:50;5.80;;;2.72;;
28629;SDS011;15817;42.130;24.762;2023-04-15T05:09:16;3.85;;;2.42;;
28629;SDS011;15817;42.130;24.762;2023-04-15T05:11:42;4.95;;;2.40;;
28629;SDS011;15817;42.130;24.762;2023-04-15T05:14:07;4.05;;;2.42;;
28629;SDS011;15817;42.130;24.762;2023-04-15T05:16:39;4.22;;;2.35;;
28629;SDS011;15817;42.130;24.762;2023-04-15T05:19:07;5.25;;;2.22;;
28629;SDS011;15817;42.130;24.762;2023-04-15T05:21:33;4.53;;;2.80;;
28629;SDS011;15817;42.130;24.762;2023-04-15T05:23:59;4.18;;;2.83;;
28629;SDS011;15817;42.130;24.762;2023-04-15T05:26:24;7.35;;;2.70;;
28629;SDS011;15817;42.130;24.762;2023-04-15T05:28:51;7.85;;;2.85;;
28629;SDS011;15817;42.130;24.762;2023-04-15T05:31:17;8.65;;;2.45;;
28629;SDS011;15817;42.130;24.762;2023-04-15T05:33:43;4.65;;;2.80;;
28629;SDS011;15817;42.130;24.762;2023-04-15T05:36:09;5.45;;;2.22;;
28629;SDS011;15817;42.130;24.762;2023-04-15T05:38:36;12.93;;;2.60;;
28629;SDS011;15817;42.130;24.762;2023-04-15T05:41:02;5.68;;;1.90;;
28629;SDS011;15817;42.130;24.762;2023-04-15T05:43:28;8.25;;;2.28;;
28629;SDS011;15817;42.130;24.762;2023-04-15T05:45:54;5.03;;;2.33;;
28629;SDS011;15817;42.130;24.762;2023-04-15T05:48:20;5.97;;;2.30;;
28629;SDS011;15817;42.130;24.762;2023-04-15T05:50:49;3.88;;;2.05;;
28629;SDS011;15817;42.130;24.762;2023-04-15T05:53:15;3.08;;;2.10;;
28629;SDS011;15817;42.130;24.762;2023-04-15T05:55:40;7.43;;;2.13;;
28629;SDS011;15817;42.130;24.762;2023-04-15T05:58:06;7.07;;;2.58;;
28629;SDS011;15817;42.130;24.762;2023-04-15T06:00:33;4.80;;;2.85;;
28629;SDS011;15817;42.130;24.762;2023-04-15T06:02:59;6.20;;;2.55;;
28629;SDS011;15817;42.130;24.762;2023-04-15T06:05:28;2.97;;;2.03;;
28629;SDS011;15817;42.130;24.762;2023-04-15T06:07:54;5.40;;;2.38;;
28629;SDS011;15817;42.130;24.762;2023-04-15T06:10:19;5.57;;;2.47;;
28629;SDS011;15817;42.130;24.762;2023-04-15T06:12:45;3.42;;;2.00;;
28629;SDS011;15817;42.130;24.762;2023-04-15T06:15:11;3.50;;;1.70;;
28629;SDS011;15817;42.130;24.762;2023-04-15T06:17:36;3.15;;;1.65;;
28629;SDS011;15817;42.130;24.762;2023-04-15T06:20:02;3.40;;;1.80;;
28629;SDS011;15817;42.130;24.762;2023-04-15T06:22:28;3.55;;;2.10;;
28629;SDS011;15817;42.130;24.762;2023-04-15T06:24:54;3.47;;;1.60;;
28629;SDS011;15817;42.130;24.762;2023-04-15T06:27:20;4.95;;;2.20;;
28629;SDS011;15817;42.130;24.762;2023-04-15T06:29:50;3.70;;;1.85;;
28629;SDS011;15817;42.130;24.762;2023-04-15T06:32:16;3.30;;;1.85;;
28629;SDS011;15817;42.130;24.762;2023-04-15T06:34:41;3.95;;;1.88;;
28629;SDS011;15817;42.130;24.762;2023-04-15T06:37:07;3.72;;;1.77;;
28629;SDS011;15817;42.130;24.762;2023-04-15T06:39:35;4.75;;;1.50;;
28629;SDS011;15817;42.130;24.762;2023-04-15T06:42:01;2.25;;;1.63;;
28629;SDS011;15817;42.130;24.762;2023-04-15T06:44:28;5.75;;;1.95;;
28629;SDS011;15817;42.130;24.762;2023-04-15T06:46:56;6.47;;;2.13;;
28629;SDS011;15817;42.130;24.762;2023-04-15T06:49:25;5.60;;;1.98;;
28629;SDS011;15817;42.130;24.762;2023-04-15T06:51:51;7.35;;;2.42;;
28629;SDS011;15817;42.130;24.762;2023-04-15T06:54:17;3.10;;;2.17;;
28629;SDS011;15817;42.130;24.762;2023-04-15T06:56:43;5.55;;;1.80;;
28629;SDS011;15817;42.130;24.762;2023-04-15T06:59:08;4.65;;;1.95;;
28629;SDS011;15817;42.130;24.762;2023-04-15T07:01:37;4.38;;;1.80;;
28629;SDS011;15817;42.130;24.762;2023-04-15T07:04:03;4.03;;;1.90;;
28629;SDS011;15817;42.130;24.762;2023-04-15T07:06:31;2.33;;;1.65;;
28629;SDS011;15817;42.130;24.762;2023-04-15T07:08:58;3.80;;;1.80;;
28629;SDS011;15817;42.130;24.762;2023-04-15T07:11:27;5.97;;;1.90;;
28629;SDS011;15817;42.130;24.762;2023-04-15T07:13:56;4.60;;;2.25;;
28629;SDS011;15817;42.130;24.762;2023-04-15T07:16:22;4.78;;;1.98;;
28629;SDS011;15817;42.130;24.762;2023-04-15T07:18:48;5.35;;;2.08;;
28629;SDS011;15817;42.130;24.762;2023-04-15T07:21:14;5.90;;;2.30;;
28629;SDS011;15817;42.130;24.762;2023-04-15T07:23:40;6.30;;;2.22;;
28629;SDS011;15817;42.130;24.762;2023-04-15T07:26:07;3.90;;;1.65;;
28629;SDS011;15817;42.130;24.762;2023-04-15T07:28:33;4.97;;;1.60;;
28629;SDS011;15817;42.130;24.762;2023-04-15T07:30:58;4.10;;;1.90;;
28629;SDS011;15817;42.130;24.762;2023-04-15T07:33:27;6.07;;;2.13;;
28629;SDS011;15817;42.130;24.762;2023-04-15T07:35:52;9.73;;;2.30;;
28629;SDS011;15817;42.130;24.762;2023-04-15T07:38:18;6.60;;;3.05;;
28629;SDS011;15817;42.130;24.762;2023-04-15T07:40:46;13.00;;;3.13;;
28629;SDS011;15817;42.130;24.762;2023-04-15T07:43:12;5.70;;;2.20;;
28629;SDS011;15817;42.130;24.762;2023-04-15T07:45:38;7.10;;;2.58;;
28629;SDS011;15817;42.130;24.762;2023-04-15T07:48:10;4.45;;;1.88;;
28629;SDS011;15817;42.130;24.762;2023-04-15T07:50:56;3.10;;;2.10;;
28629;SDS011;15817;42.130;24.762;2023-04-15T07:53:26;4.45;;;3.20;;
28629;SDS011;15817;42.130;24.762;2023-04-15T07:55:52;5.68;;;2.85;;
28629;SDS011;15817;42.130;24.762;2023-04-15T07:58:17;8.93;;;2.70;;
28629;SDS011;15817;42.130;24.762;2023-04-15T08:00:44;6.45;;;2.17;;
28629;SDS011;15817;42.130;24.762;2023-04-15T08:03:18;8.32;;;2.63;;
28629;SDS011;15817;42.130;24.762;2023-04-15T08:05:43;5.00;;;2.25;;
28629;SDS011;15817;42.130;24.762;2023-04-15T08:08:09;5.50;;;2.95;;
28629;SDS011;15817;42.130;24.762;2023-04-15T08:10:35;4.20;;;2.45;;
28629;SDS011;15817;42.130;24.762;2023-04-15T08:13:02;4.97;;;2.50;;
28629;SDS011;15817;42.130;24.762;2023-04-15T08:15:27;5.22;;;2.33;;
28629;SDS011;15817;42.130;24.762;2023-04-15T08:30:24;3.88;;;2.60;;
28629;SDS011;15817;42.130;24.762;2023-04-15T08:32:50;5.57;;;3.08;;
28629;SDS011;15817;42.130;24.762;2023-04-15T08:35:16;6.60;;;3.40;;
28629;SDS011;15817;42.130;24.762;2023-04-15T08:37:42;9.70;;;3.10;;
28629;SDS011;15817;42.130;24.762;2023-04-15T08:40:08;5.50;;;2.67;;
28629;SDS011;15817;42.130;24.762;2023-04-15T08:42:43;3.90;;;2.72;;
28629;SDS011;15817;42.130;24.762;2023-04-15T08:45:15;6.43;;;2.70;;
28629;SDS011;15817;42.130;24.762;2023-04-15T08:47:42;7.07;;;3.08;;
28629;SDS011;15817;42.130;24.762;2023-04-15T08:50:10;5.60;;;3.00;;
28629;SDS011;15817;42.130;24.762;2023-04-15T08:52:37;6.57;;;2.97;;
28629;SDS011;15817;42.130;24.762;2023-04-15T08:55:03;6.63;;;2.70;;
28629;SDS011;15817;42.130;24.762;2023-04-15T08:57:30;8.23;;;2.83;;
28629;SDS011;15817;42.130;24.762;2023-04-15T08:59:57;5.13;;;2.40;;
28629;SDS011;15817;42.130;24.762;2023-04-15T09:02:23;7.47;;;2.47;;
28629;SDS011;15817;42.130;24.762;2023-04-15T09:04:51;5.72;;;3.15;;
28629;SDS011;15817;42.130;24.762;2023-04-15T09:07:17;5.10;;;2.25;;
28629;SDS011;15817;42.130;24.762;2023-04-15T09:09:47;5.35;;;2.60;;
28629;SDS011;15817;42.130;24.762;2023-04-15T09:12:14;5.15;;;2.35;;
28629;SDS011;15817;42.130;24.762;2023-04-15T09:14:42;5.25;;;2.90;;
28629;SDS011;15817;42.130;24.762;2023-04-15T09:17:09;4.75;;;2.90;;
28629;SDS011;15817;42.130;24.762;2023-04-15T09:19:36;9.15;;;2.88;;
28629;SDS011;15817;42.130;24.762;2023-04-15T09:22:01;9.95;;;3.03;;
28629;SDS011;15817;42.130;24.762;2023-04-15T09:24:37;7.60;;;3.00;;
28629;SDS011;15817;42.130;24.762;2023-04-15T09:27:05;6.80;;;2.70;;
28629;SDS011;15817;42.130;24.762;2023-04-15T09:29:31;4.22;;;2.80;;
28629;SDS011;15817;42.130;24.762;2023-04-15T09:32:12;3.88;;;2.47;;
28629;SDS011;15817;42.130;24.762;2023-04-15T09:34:41;10.20;;;2.80;;
28629;SDS011;15817;42.130;24.762;2023-04-15T09:37:07;4.72;;;2.53;;
28629;SDS011;15817;42.130;24.762;2023-04-15T09:39:48;5.20;;;2.63;;
28629;SDS011;15817;42.130;24.762;2023-04-15T09:42:15;5.35;;;2.50;;
28629;SDS011;15817;42.130;24.762;2023-04-15T09:44:48;6.18;;;3.05;;
28629;SDS011;15817;42.130;24.762;2023-04-15T09:47:30;4.88;;;2.20;;
28629;SDS011;15817;42.130;24.762;2023-04-15T09:49:57;9.10;;;2.70;;
28629;SDS011;15817;42.130;24.762;2023-04-15T09:52:24;6.18;;;2.22;;
28629;SDS011;15817;42.130;24.762;2023-04-15T09:54:51;5.47;;;2.20;;
28629;SDS011;15817;42.130;24.762;2023-04-15T09:57:20;3.75;;;1.95;;
28629;SDS011;15817;42.130;24.762;2023-04-15T09:59:46;2.75;;;1.92;;
28629;SDS011;15817;42.130;24.762;2023-04-15T10:02:12;5.00;;;2.10;;
28629;SDS011;15817;42.130;24.762;2023-04-15T10:04:39;6.90;;;1.65;;
28629;SDS011;15817;42.130;24.762;2023-04-15T10:07:07;4.57;;;1.60;;
28629;SDS011;15817;42.130;24.762;2023-04-15T10:09:37;2.45;;;1.42;;
28629;SDS011;15817;42.130;24.762;2023-04-15T10:12:03;6.25;;;1.75;;
28629;SDS011;15817;42.130;24.762;2023-04-15T10:14:31;5.53;;;1.80;;
28629;SDS011;15817;42.130;24.762;2023-04-15T10:17:03;3.80;;;1.67;;
28629;SDS011;15817;42.130;24.762;2023-04-15T10:19:30;3.33;;;1.75;;
28629;SDS011;15817;42.130;24.762;2023-04-15T10:21:58;6.28;;;1.58;;
28629;SDS011;15817;42.130;24.762;2023-04-15T10:24:24;6.57;;;1.65;;
28629;SDS011;15817;42.130;24.762;2023-04-15T10:26:53;2.88;;;1.58;;
28629;SDS011;15817;42.130;24.762;2023-04-15T10:29:19;3.95;;;2.33;;
28629;SDS011;15817;42.130;24.762;2023-04-15T10:31:45;5.80;;;1.67;;
28629;SDS011;15817;42.130;24.762;2023-04-15T10:34:12;5.35;;;2.10;;
28629;SDS011;15817;42.130;24.762;2023-04-15T10:36:40;5.60;;;1.98;;
28629;SDS011;15817;42.130;24.762;2023-04-15T10:42:08;4.85;;;2.20;;
28629;SDS011;15817;42.130;24.762;2023-04-15T10:44:35;4.60;;;2.67;;
28629;SDS011;15817;42.130;24.762;2023-04-15T10:47:05;7.88;;;4.30;;
28629;SDS011;15817;42.130;24.762;2023-04-15T10:49:35;7.90;;;3.95;;
28629;SDS011;15817;42.130;24.762;2023-04-15T10:52:09;6.45;;;3.10;;
28629;SDS011;15817;42.130;24.762;2023-04-15T10:54:36;6.80;;;3.40;;
28629;SDS011;15817;42.130;24.762;2023-04-15T10:57:07;5.80;;;3.40;;
28629;SDS011;15817;42.130;24.762;2023-04-15T10:59:58;4.25;;;3.20;;
28629;SDS011;15817;42.130;24.762;2023-04-15T11:02:40;6.60;;;2.90;;
28629;SDS011;15817;42.130;24.762;2023-04-15T11:05:11;5.25;;;3.47;;
28629;SDS011;15817;42.130;24.762;2023-04-15T11:12:42;8.18;;;3.40;;
28629;SDS011;15817;42.130;24.762;2023-04-15T11:17:50;5.35;;;3.25;;
28629;SDS011;15817;42.130;24.762;2023-04-15T11:20:16;5.65;;;3.08;;
28629;SDS011;15817;42.130;24.762;2023-04-15T11:22:49;6.07;;;3.45;;
28629;SDS011;15817;42.130;24.762;2023-04-15T11:25:37;6.43;;;3.60;;
28629;SDS011;15817;42.130;24.762;2023-04-15T11:28:02;4.90;;;3.72;;
28629;SDS011;15817;42.130;24.762;2023-04-15T11:30:32;6.13;;;3.75;;
28629;SDS011;15817;42.130;24.762;2023-04-15T11:33:01;6.60;;;3.70;;
28629;SDS011;15817;42.130;24.762;2023-04-15T11:35:30;5.25;;;2.95;;
28629;SDS011;15817;42.130;24.762;2023-04-15T11:37:56;7.88;;;3.72;;
28629;SDS011;15817;42.130;24.762;2023-04-15T11:40:26;9.30;;;3.30;;
28629;SDS011;15817;42.130;24.762;2023-04-15T11:45:55;4.93;;;3.45;;
28629;SDS011;15817;42.130;24.762;2023-04-15T11:48:24;5.53;;;3.75;;
28629;SDS011;15817;42.130;24.762;2023-04-15T11:50:52;5.65;;;3.45;;
28629;SDS011;15817;42.130;24.762;2023-04-15T11:53:22;6.28;;;4.13;;
28629;SDS011;15817;42.130;24.762;2023-04-15T11:55:52;4.43;;;3.50;;
28629;SDS011;15817;42.130;24.762;2023-04-15T11:58:22;6.38;;;3.65;;
28629;SDS011;15817;42.130;24.762;2023-04-15T12:03:32;6.32;;;3.17;;
28629;SDS011;15817;42.130;24.762;2023-04-15T12:06:02;6.90;;;2.60;;
28629;SDS011;15817;42.130;24.762;2023-04-15T12:11:41;6.88;;;2.75;;
28629;SDS011;15817;42.130;24.762;2023-04-15T12:16:38;7.63;;;2.28;;
28629;SDS011;15817;42.130;24.762;2023-04-15T12:19:07;4.80;;;2.25;;
28629;SDS011;15817;42.130;24.762;2023-04-15T12:21:36;5.00;;;1.65;;
28629;SDS011;15817;42.130;24.762;2023-04-15T12:24:08;5.97;;;2.10;;
28629;SDS011;15817;42.130;24.762;2023-04-15T12:26:37;3.78;;;1.70;;
28629;SDS011;15817;42.130;24.762;2023-04-15T12:29:07;5.68;;;1.60;;
28629;SDS011;15817;42.130;24.762;2023-04-15T12:31:34;6.07;;;1.80;;
28629;SDS011;15817;42.130;24.762;2023-04-15T12:34:07;4.50;;;1.80;;
28629;SDS011;15817;42.130;24.762;2023-04-15T12:36:36;3.22;;;1.92;;
28629;SDS011;15817;42.130;24.762;2023-04-15T12:39:03;5.75;;;2.10;;
28629;SDS011;15817;42.130;24.762;2023-04-15T12:41:30;3.28;;;1.70;;
28629;SDS011;15817;42.130;24.762;2023-04-15T12:43:56;4.85;;;1.90;;
28629;SDS011;15817;42.130;24.762;2023-04-15T12:46:22;5.80;;;1.73;;
28629;SDS011;15817;42.130;24.762;2023-04-15T12:48:49;3.92;;;1.60;;
28629;SDS011;15817;42.130;24.762;2023-04-15T12:51:16;4.95;;;1.77;;
28629;SDS011;15817;42.130;24.762;2023-04-15T12:53:42;4.65;;;1.30;;
28629;SDS011;15817;42.130;24.762;2023-04-15T12:56:12;3.90;;;2.03;;
28629;SDS011;15817;42.130;24.762;2023-04-15T12:58:38;5.38;;;1.60;;
28629;SDS011;15817;42.130;24.762;2023-04-15T13:01:07;3.20;;;1.67;;
28629;SDS011;15817;42.130;24.762;2023-04-15T13:03:34;5.25;;;2.00;;
28629;SDS011;15817;42.130;24.762;2023-04-15T13:06:00;6.22;;;1.67;;
28629;SDS011;15817;42.130;24.762;2023-04-15T13:08:28;2.65;;;1.80;;
28629;SDS011;15817;42.130;24.762;2023-04-15T13:10:54;5.60;;;1.85;;
28629;SDS011;15817;42.130;24.762;2023-04-15T13:13:24;3.40;;;1.38;;
28629;SDS011;15817;42.130;24.762;2023-04-15T13:15:49;3.42;;;1.80;;
28629;SDS011;15817;42.130;24.762;2023-04-15T13:18:15;4.18;;;1.95;;
28629;SDS011;15817;42.130;24.762;2023-04-15T13:20:41;3.00;;;1.60;;
28629;SDS011;15817;42.130;24.762;2023-04-15T13:23:08;4.43;;;1.70;;
28629;SDS011;15817;42.130;24.762;2023-04-15T13:25:36;4.18;;;1.67;;
28629;SDS011;15817;42.130;24.762;2023-04-15T13:28:02;3.33;;;1.85;;
28629;SDS011;15817;42.130;24.762;2023-04-15T13:30:28;3.83;;;1.55;;
28629;SDS011;15817;42.130;24.762;2023-04-15T13:32:56;3.97;;;1.70;;
28629;SDS011;15817;42.130;24.762;2023-04-15T13:35:22;4.55;;;1.55;;
28629;SDS011;15817;42.130;24.762;2023-04-15T13:37:48;8.15;;;1.60;;
28629;SDS011;15817;42.130;24.762;2023-04-15T13:40:13;6.22;;;1.60;;
28629;SDS011;15817;42.130;24.762;2023-04-15T13:42:40;4.18;;;1.75;;
28629;SDS011;15817;42.130;24.762;2023-04-15T13:45:07;3.45;;;2.05;;
28629;SDS011;15817;42.130;24.762;2023-04-15T13:47:34;4.22;;;1.73;;
28629;SDS011;15817;42.130;24.762;2023-04-15T13:50:00;5.72;;;2.70;;
28629;SDS011;15817;42.130;24.762;2023-04-15T13:52:26;4.68;;;1.85;;
28629;SDS011;15817;42.130;24.762;2023-04-15T13:54:54;3.65;;;1.60;;
28629;SDS011;15817;42.130;24.762;2023-04-15T13:57:20;5.85;;;2.40;;
28629;SDS011;15817;42.130;24.762;2023-04-15T13:59:46;5.78;;;2.38;;
28629;SDS011;15817;42.130;24.762;2023-04-15T14:02:14;5.95;;;3.60;;
28629;SDS011;15817;42.130;24.762;2023-04-15T14:07:40;17.98;;;6.60;;
28629;SDS011;15817;42.130;24.762;2023-04-15T14:10:06;4.15;;;2.78;;
28629;SDS011;15817;42.130;24.762;2023-04-15T14:12:32;5.57;;;2.00;;
28629;SDS011;15817;42.130;24.762;2023-04-15T14:14:58;5.75;;;3.35;;
28629;SDS011;15817;42.130;24.762;2023-04-15T14:17:24;10.85;;;5.20;;
28629;SDS011;15817;42.130;24.762;2023-04-15T14:19:50;6.40;;;2.25;;
28629;SDS011;15817;42.130;24.762;2023-04-15T14:22:16;13.93;;;10.68;;
28629;SDS011;15817;42.130;24.762;2023-04-15T14:24:43;13.02;;;8.23;;
28629;SDS011;15817;42.130;24.762;2023-04-15T14:27:11;13.23;;;9.55;;
28629;SDS011;15817;42.130;24.762;2023-04-15T14:29:37;10.60;;;7.03;;
28629;SDS011;15817;42.130;24.762;2023-04-15T14:32:03;11.02;;;8.25;;
28629;SDS011;15817;42.130;24.762;2023-04-15T14:34:29;9.50;;;4.97;;
28629;SDS011;15817;42.130;24.762;2023-04-15T14:36:55;16.95;;;13.30;;
28629;SDS011;15817;42.130;24.762;2023-04-15T14:39:21;31.95;;;22.83;;
28629;SDS011;15817;42.130;24.762;2023-04-15T14:41:47;7.82;;;5.97;;
28629;SDS011;15817;42.130;24.762;2023-04-15T14:44:13;8.68;;;5.68;;
28629;SDS011;15817;42.130;24.762;2023-04-15T14:46:39;15.63;;;3.83;;
28629;SDS011;15817;42.130;24.762;2023-04-15T14:49:05;6.88;;;2.58;;
28629;SDS011;15817;42.130;24.762;2023-04-15T14:51:32;4.47;;;2.00;;
28629;SDS011;15817;42.130;24.762;2023-04-15T14:54:01;10.25;;;2.17;;
28629;SDS011;15817;42.130;24.762;2023-04-15T14:56:27;4.28;;;1.92;;
28629;SDS011;15817;42.130;24.762;2023-04-15T14:58:52;9.77;;;2.50;;
28629;SDS011;15817;42.130;24.762;2023-04-15T15:01:19;6.90;;;2.10;;
28629;SDS011;15817;42.130;24.762;2023-04-15T15:03:45;5.20;;;1.98;;
28629;SDS011;15817;42.130;24.762;2023-04-15T15:06:11;5.05;;;2.22;;
28629;SDS011;15817;42.130;24.762;2023-04-15T15:09:01;6.18;;;1.77;;
28629;SDS011;15817;42.130;24.762;2023-04-15T15:11:28;5.20;;;2.00;;